Time;durP1;ratioP1;P1;durP2;ratioP2;P2;SDS_P1;SDS_P2;PMS_P1;PMS_P2;Temp;Humidity;BMP_temperature;BMP_pressure;BME280_temperature;BME280_humidity;BME280_pressure;Samples;Min_cycle;Max_cycle;Signal;HPM_P1;HPM_P2
2023/07/16 00:01:03;;;;;;;7.80;3.10;;;17.60;99.90;;;;;;478751;249;29293;-81
2023/07/16 00:03:04;;;;;;;2.53;2.33;;;17.60;99.90;;;;;;486992;244;29166;-80
2023/07/16 00:05:06;;;;;;;3.80;2.50;;;17.60;99.90;;;;;;478588;249;28750;-81
2023/07/16 00:07:07;;;;;;;3.63;2.67;;;17.60;99.90;;;;;;486975;244;28851;-80
2023/07/16 00:09:08;;;;;;;3.13;2.60;;;17.60;99.90;;;;;;478663;249;28752;-81
2023/07/16 00:11:09;;;;;;;3.70;2.63;;;17.50;99.90;;;;;;487077;244;28669;-83
2023/07/16 00:13:10;;;;;;;4.67;2.50;;;17.60;99.90;;;;;;478763;249;28756;-81
2023/07/16 00:15:12;;;;;;;4.57;2.57;;;17.50;99.90;;;;;;486974;244;28713;-81
2023/07/16 00:17:13;;;;;;;3.20;2.57;;;17.50;99.90;;;;;;478693;249;28739;-78
2023/07/16 00:19:14;;;;;;;4.30;2.50;;;17.60;99.90;;;;;;486928;244;28804;-82
2023/07/16 00:21:15;;;;;;;5.50;2.83;;;17.50;99.90;;;;;;478782;249;28787;-80
2023/07/16 00:23:17;;;;;;;3.50;3.20;;;17.60;99.90;;;;;;486879;244;29329;-79
2023/07/16 00:25:18;;;;;;;7.63;3.37;;;17.60;99.90;;;;;;478701;249;29200;-81
2023/07/16 00:27:19;;;;;;;3.30;3.00;;;17.50;99.90;;;;;;487007;244;29510;-81
2023/07/16 00:29:20;;;;;;;5.17;3.00;;;17.50;99.90;;;;;;478788;249;28748;-79
2023/07/16 00:31:22;;;;;;;2.80;2.60;;;17.50;99.90;;;;;;486982;244;28773;-83
2023/07/16 00:33:23;;;;;;;4.27;2.40;;;17.50;99.90;;;;;;478797;249;28736;-77
2023/07/16 00:35:24;;;;;;;4.53;2.90;;;17.50;99.90;;;;;;486983;244;28704;-81
2023/07/16 00:37:25;;;;;;;5.30;2.20;;;17.50;99.90;;;;;;478822;249;28783;-82
2023/07/16 00:39:27;;;;;;;5.07;2.60;;;17.60;99.90;;;;;;487066;244;28876;-80
2023/07/16 00:41:28;;;;;;;3.47;2.50;;;17.40;99.90;;;;;;478786;249;28735;-82
2023/07/16 00:43:29;;;;;;;3.10;2.73;;;17.40;99.90;;;;;;486994;244;28685;-83
2023/07/16 00:45:30;;;;;;;4.30;2.80;;;17.30;99.90;;;;;;478778;243;28738;-78
2023/07/16 00:47:32;;;;;;;5.40;3.00;;;17.20;99.90;;;;;;487052;244;28906;-80
2023/07/16 00:49:33;;;;;;;9.73;2.93;;;17.20;99.90;;;;;;478821;249;29298;-79
2023/07/16 00:51:34;;;;;;;4.23;3.00;;;17.10;99.90;;;;;;487041;244;29256;-81
2023/07/16 00:53:35;;;;;;;2.50;2.17;;;17.20;99.90;;;;;;478775;249;28844;-80
2023/07/16 00:55:37;;;;;;;7.23;2.93;;;17.20;99.90;;;;;;487014;244;28776;-81
2023/07/16 00:57:38;;;;;;;3.50;2.77;;;17.20;99.90;;;;;;478829;249;28776;-80
2023/07/16 00:59:39;;;;;;;4.27;2.60;;;17.20;99.90;;;;;;486956;244;28843;-79
2023/07/16 01:01:40;;;;;;;3.33;2.43;;;17.20;99.90;;;;;;478799;249;28807;-79
2023/07/16 01:03:42;;;;;;;3.73;2.87;;;17.10;99.90;;;;;;487057;243;28713;-79
2023/07/16 01:05:43;;;;;;;3.57;2.47;;;17.10;99.90;;;;;;478881;249;28749;-81
2023/07/16 01:07:44;;;;;;;2.73;2.53;;;17.00;99.90;;;;;;486974;244;28716;-82
2023/07/16 01:09:45;;;;;;;2.80;2.27;;;17.00;99.90;;;;;;478714;244;28831;-82
2023/07/16 01:11:47;;;;;;;3.30;2.77;;;17.00;99.90;;;;;;487056;244;28847;-81
2023/07/16 01:13:48;;;;;;;4.67;2.53;;;17.00;99.90;;;;;;478761;243;29324;-84
2023/07/16 01:15:49;;;;;;;8.53;2.87;;;16.90;99.90;;;;;;487042;244;29354;-79
2023/07/16 01:17:50;;;;;;;4.20;2.60;;;16.90;99.90;;;;;;478783;249;29219;-80
2023/07/16 01:19:52;;;;;;;4.40;2.33;;;16.80;99.90;;;;;;487017;244;28894;-81
2023/07/16 01:21:53;;;;;;;6.30;2.90;;;16.90;99.90;;;;;;478810;249;28802;-82
2023/07/16 01:23:54;;;;;;;5.87;2.57;;;16.90;99.90;;;;;;472514;250;28881;-81
2023/07/16 01:25:55;;;;;;;4.13;2.77;;;16.90;99.90;;;;;;486940;244;28900;-80
2023/07/16 01:27:57;;;;;;;3.47;2.60;;;16.90;99.90;;;;;;478817;249;28760;-77
2023/07/16 01:29:58;;;;;;;4.80;2.90;;;16.80;99.90;;;;;;487037;244;28889;-81
2023/07/16 01:31:59;;;;;;;3.80;2.40;;;16.90;99.90;;;;;;478825;249;28731;-78
2023/07/16 01:34:00;;;;;;;4.90;2.47;;;16.90;99.90;;;;;;487099;244;28879;-83
2023/07/16 01:36:02;;;;;;;4.27;3.10;;;16.90;99.90;;;;;;478819;249;28827;-80
2023/07/16 01:38:03;;;;;;;3.00;2.33;;;16.90;99.90;;;;;;487048;244;28748;-80
2023/07/16 01:40:04;;;;;;;6.87;2.90;;;16.80;99.90;;;;;;478747;244;29257;-83
2023/07/16 01:42:06;;;;;;;4.23;2.60;;;16.80;99.90;;;;;;487002;244;29403;-79
2023/07/16 01:44:07;;;;;;;5.83;2.97;;;16.80;99.90;;;;;;478665;242;28711;-81
2023/07/16 01:46:08;;;;;;;12.33;3.70;;;16.80;99.90;;;;;;486937;243;28835;-83
2023/07/16 01:48:09;;;;;;;4.33;2.63;;;16.80;99.90;;;;;;478791;244;28751;-81
2023/07/16 01:50:10;;;;;;;4.40;2.60;;;16.80;99.90;;;;;;487015;244;28681;-80
2023/07/16 01:52:12;;;;;;;5.23;2.77;;;16.70;99.90;;;;;;478697;243;28747;-80
2023/07/16 01:54:13;;;;;;;3.77;2.47;;;16.70;99.90;;;;;;486967;244;28736;-79
2023/07/16 01:56:14;;;;;;;6.83;2.80;;;16.70;99.90;;;;;;478797;244;28798;-79
2023/07/16 01:58:15;;;;;;;6.40;2.40;;;16.70;99.90;;;;;;486821;243;28842;-79
2023/07/16 02:00:17;;;;;;;5.27;2.23;;;16.60;99.90;;;;;;478706;245;28756;-82
2023/07/16 02:02:18;;;;;;;4.70;2.37;;;16.70;99.90;;;;;;486942;244;29387;-80
2023/07/16 02:04:19;;;;;;;4.70;2.37;;;16.60;99.90;;;;;;478772;249;29195;-79
2023/07/16 02:06:20;;;;;;;8.63;2.90;;;16.70;99.90;;;;;;486987;244;29365;-81
2023/07/16 02:08:22;;;;;;;4.00;2.23;;;16.70;99.90;;;;;;478798;245;29086;-81
2023/07/16 02:10:23;;;;;;;5.40;2.83;;;16.70;99.90;;;;;;487101;244;28821;-81
2023/07/16 02:12:24;;;;;;;4.17;2.67;;;16.60;99.90;;;;;;478822;249;28729;-78
2023/07/16 02:14:25;;;;;;;3.10;2.53;;;16.60;99.90;;;;;;487076;244;28870;-80
2023/07/16 02:16:27;;;;;;;3.77;2.83;;;16.50;99.90;;;;;;478821;249;28860;-81
2023/07/16 02:18:28;;;;;;;5.57;2.80;;;16.60;99.90;;;;;;487136;244;28776;-79
2023/07/16 02:20:29;;;;;;;6.13;3.00;;;16.50;99.90;;;;;;478804;249;28824;-81
2023/07/16 02:22:30;;;;;;;6.37;3.23;;;16.50;99.90;;;;;;487050;244;28867;-81
2023/07/16 02:24:32;;;;;;;7.10;2.80;;;16.40;99.90;;;;;;478649;242;28728;-82
2023/07/16 02:26:33;;;;;;;4.10;2.40;;;16.30;99.90;;;;;;487062;244;28824;-79
2023/07/16 02:28:34;;;;;;;5.53;2.70;;;16.20;99.90;;;;;;478789;244;29291;-80
2023/07/16 02:30:35;;;;;;;7.50;2.70;;;16.20;99.90;;;;;;486977;244;29441;-82
2023/07/16 02:32:37;;;;;;;4.87;2.53;;;16.20;99.90;;;;;;478794;249;29283;-81
2023/07/16 02:34:38;;;;;;;5.63;2.87;;;16.10;99.90;;;;;;487069;244;28805;-79
2023/07/16 02:36:39;;;;;;;13.70;2.70;;;16.10;99.90;;;;;;478750;245;28764;-82
2023/07/16 02:38:40;;;;;;;4.27;2.60;;;16.20;99.90;;;;;;486997;244;28880;-77
2023/07/16 02:40:42;;;;;;;5.83;3.07;;;16.10;99.90;;;;;;478761;247;28812;-82
2023/07/16 02:42:44;;;;;;;4.70;2.70;;;16.20;99.90;;;;;;486933;244;28840;-82
2023/07/16 02:44:44;;;;;;;4.23;2.70;;;16.00;99.90;;;;;;478849;249;28749;-82
2023/07/16 02:46:46;;;;;;;2.23;2.03;;;16.10;99.90;;;;;;487076;244;28829;-83
2023/07/16 02:48:47;;;;;;;6.93;3.10;;;16.00;99.90;;;;;;478688;244;28824;-81
2023/07/16 02:50:48;;;;;;;5.87;2.90;;;16.00;99.90;;;;;;487010;244;28776;-80
2023/07/16 02:52:49;;;;;;;7.40;3.23;;;16.00;99.90;;;;;;478797;244;29362;-79
2023/07/16 02:54:50;;;;;;;7.90;3.53;;;16.00;99.90;;;;;;487011;244;29363;-79
2023/07/16 02:56:52;;;;;;;8.90;3.13;;;16.00;99.90;;;;;;478880;249;29223;-78
2023/07/16 02:58:53;;;;;;;8.67;3.23;;;16.00;99.90;;;;;;487048;244;28718;-80
2023/07/16 03:00:54;;;;;;;7.83;2.80;;;16.00;99.90;;;;;;478790;249;28757;-80
2023/07/16 03:02:55;;;;;;;6.10;2.90;;;15.90;99.90;;;;;;487061;244;28835;-79
2023/07/16 03:04:57;;;;;;;5.37;2.80;;;15.90;99.90;;;;;;478739;249;28752;-79
2023/07/16 03:06:58;;;;;;;9.17;3.00;;;16.00;99.90;;;;;;487096;243;28789;-79
2023/07/16 03:08:59;;;;;;;5.70;2.73;;;16.00;99.90;;;;;;478788;245;28763;-80
2023/07/16 03:11:01;;;;;;;4.80;2.93;;;15.90;99.90;;;;;;487025;244;28768;-82
2023/07/16 03:13:02;;;;;;;8.57;3.03;;;15.90;99.90;;;;;;478816;249;28737;-81
2023/07/16 03:15:03;;;;;;;3.83;2.60;;;15.80;99.90;;;;;;487073;244;28681;-79
2023/07/16 03:17:06;;;;;;;6.83;2.70;;;15.70;99.90;;;;;;478842;245;29283;-79
2023/07/16 03:19:06;;;;;;;5.13;2.60;;;15.70;99.90;;;;;;486949;244;29382;-78
2023/07/16 03:21:07;;;;;;;9.30;3.00;;;15.70;99.90;;;;;;478801;249;29313;-79
2023/07/16 03:23:08;;;;;;;10.07;3.47;;;15.70;99.90;;;;;;487086;244;28698;-79
2023/07/16 03:25:09;;;;;;;4.60;2.87;;;15.60;99.90;;;;;;478870;249;28788;-79
2023/07/16 03:27:11;;;;;;;4.43;2.67;;;15.60;99.90;;;;;;487108;244;28875;-79
2023/07/16 03:29:12;;;;;;;6.33;3.17;;;15.60;99.90;;;;;;478812;249;28747;-79
2023/07/16 03:31:13;;;;;;;7.17;2.93;;;15.60;99.90;;;;;;487017;244;28758;-77
2023/07/16 03:33:14;;;;;;;4.80;2.90;;;15.60;99.90;;;;;;478742;245;28743;-77
2023/07/16 03:35:16;;;;;;;5.70;3.47;;;15.60;99.90;;;;;;487104;243;28848;-82
2023/07/16 03:37:17;;;;;;;6.63;3.07;;;15.60;99.90;;;;;;478783;247;28753;-81
2023/07/16 03:39:18;;;;;;;8.13;3.10;;;15.60;99.90;;;;;;487039;243;28761;-79
2023/07/16 03:41:19;;;;;;;6.50;3.13;;;15.50;99.90;;;;;;478783;249;29333;-78
2023/07/16 03:43:21;;;;;;;4.60;2.53;;;15.50;99.90;;;;;;487071;244;29421;-80
2023/07/16 03:45:22;;;;;;;6.03;2.90;;;15.60;99.90;;;;;;478756;249;29149;-80
2023/07/16 03:47:23;;;;;;;3.77;2.50;;;15.60;99.90;;;;;;487059;244;28784;-79
2023/07/16 03:49:24;;;;;;;6.10;2.83;;;15.60;99.90;;;;;;478890;249;28733;-79
2023/07/16 03:51:26;;;;;;;6.30;2.80;;;15.60;99.90;;;;;;486998;244;28843;-82
2023/07/16 03:53:27;;;;;;;6.67;3.10;;;15.60;99.90;;;;;;478854;249;28779;-79
2023/07/16 03:55:28;;;;;;;4.90;3.13;;;15.60;99.90;;;;;;487068;244;28900;-79
2023/07/16 03:57:29;;;;;;;6.80;3.50;;;15.50;99.90;;;;;;478777;249;28740;-80
2023/07/16 03:59:31;;;;;;;6.30;3.40;;;15.50;99.90;;;;;;487043;244;28804;-81
2023/07/16 04:01:32;;;;;;;6.23;3.20;;;15.60;99.90;;;;;;478808;249;28746;-81
2023/07/16 04:03:33;;;;;;;4.53;3.13;;;15.60;99.90;;;;;;487060;244;28795;-84
2023/07/16 04:05:34;;;;;;;10.47;3.20;;;15.60;99.90;;;;;;478831;249;28759;-78
2023/07/16 04:07:36;;;;;;;8.33;3.50;;;15.70;99.90;;;;;;487040;244;29326;-79
2023/07/16 04:09:37;;;;;;;8.23;3.20;;;15.70;99.90;;;;;;478754;249;29326;-80
2023/07/16 04:11:38;;;;;;;5.10;2.90;;;15.70;99.90;;;;;;486916;244;28774;-82
2023/07/16 04:13:39;;;;;;;5.40;3.30;;;15.60;99.90;;;;;;478816;243;28763;-82
2023/07/16 04:15:41;;;;;;;8.30;3.00;;;15.60;99.90;;;;;;487090;244;28797;-80
2023/07/16 04:17:42;;;;;;;6.57;3.03;;;15.60;99.90;;;;;;478791;249;28716;-81
2023/07/16 04:19:43;;;;;;;7.53;3.40;;;15.50;99.90;;;;;;486983;244;28706;-78
2023/07/16 04:21:44;;;;;;;7.43;3.70;;;15.60;99.90;;;;;;478861;249;28792;-81
2023/07/16 04:23:46;;;;;;;5.73;2.90;;;15.70;99.90;;;;;;487085;244;28760;-80
2023/07/16 04:25:47;;;;;;;8.70;3.00;;;15.70;99.90;;;;;;478813;249;28746;-79
2023/07/16 04:27:48;;;;;;;6.63;3.50;;;15.60;99.90;;;;;;487088;244;28849;-83
2023/07/16 04:29:49;;;;;;;7.40;3.20;;;15.60;99.90;;;;;;478813;249;28726;-80
2023/07/16 04:31:51;;;;;;;4.97;3.40;;;15.50;99.90;;;;;;487033;244;29232;-81
2023/07/16 04:33:52;;;;;;;8.23;3.47;;;15.60;99.90;;;;;;478819;249;29332;-83
2023/07/16 04:35:53;;;;;;;9.23;3.37;;;15.50;99.90;;;;;;472590;250;29423;-79
2023/07/16 04:37:54;;;;;;;8.20;3.20;;;15.60;99.90;;;;;;487038;244;28766;-79
2023/07/16 04:39:56;;;;;;;8.13;3.33;;;15.60;99.90;;;;;;478813;249;28782;-82
2023/07/16 04:41:57;;;;;;;4.23;2.60;;;15.60;99.90;;;;;;487016;243;28701;-80
2023/07/16 04:43:58;;;;;;;7.23;2.97;;;15.60;99.90;;;;;;478815;249;28749;-80
2023/07/16 04:45:59;;;;;;;8.10;3.10;;;15.60;99.90;;;;;;487058;244;29212;-78
2023/07/16 04:48:01;;;;;;;4.73;3.03;;;15.70;99.90;;;;;;478804;249;28760;-80
2023/07/16 04:50:02;;;;;;;7.60;2.93;;;15.70;99.90;;;;;;487036;244;28779;-79
2023/07/16 04:52:03;;;;;;;7.83;2.90;;;15.70;99.90;;;;;;478806;249;28758;-85
2023/07/16 04:54:04;;;;;;;9.17;3.43;;;15.70;99.90;;;;;;487056;244;28835;-82
2023/07/16 04:56:10;;;;;;;9.37;3.37;;;15.80;99.90;;;;;;478771;245;29395;-79
2023/07/16 04:58:07;;;;;;;7.90;3.10;;;15.80;99.90;;;;;;486764;244;29425;-81
2023/07/16 05:00:08;;;;;;;8.03;3.10;;;15.60;99.90;;;;;;478740;249;29316;-75
2023/07/16 05:02:09;;;;;;;8.27;3.03;;;15.70;99.90;;;;;;487063;244;28960;-80
2023/07/16 05:04:11;;;;;;;4.80;3.00;;;15.80;99.90;;;;;;478677;244;28851;-83
2023/07/16 05:06:12;;;;;;;6.23;3.07;;;15.90;99.90;;;;;;487108;244;28685;-81
2023/07/16 05:08:13;;;;;;;5.73;2.77;;;16.00;99.90;;;;;;478747;244;28715;-80
2023/07/16 05:10:14;;;;;;;7.30;3.33;;;16.00;99.90;;;;;;487017;244;28842;-81
2023/07/16 05:12:16;;;;;;;5.50;3.33;;;16.10;99.90;;;;;;478770;249;29218;-83
2023/07/16 05:14:17;;;;;;;6.03;2.90;;;16.10;99.90;;;;;;486950;244;28778;-80
2023/07/16 05:16:18;;;;;;;6.50;3.23;;;16.10;99.90;;;;;;478801;245;28743;-82
2023/07/16 05:18:21;;;;;;;22.90;3.80;;;16.00;99.90;;;;;;487047;244;28811;-79
2023/07/16 05:20:21;;;;;;;5.50;3.00;;;15.80;99.90;;;;;;478800;249;29256;-79
2023/07/16 05:22:22;;;;;;;15.27;4.20;;;15.90;99.90;;;;;;486934;244;29370;-82
2023/07/16 05:24:23;;;;;;;8.53;3.43;;;16.00;99.90;;;;;;478779;249;29225;-83
2023/07/16 05:26:24;;;;;;;5.40;2.97;;;16.00;99.90;;;;;;487056;244;28707;-84
2023/07/16 05:28:26;;;;;;;5.80;3.47;;;16.00;99.90;;;;;;478806;244;28779;-83
2023/07/16 05:30:27;;;;;;;5.57;3.00;;;16.20;99.90;;;;;;486993;244;28863;-79
2023/07/16 05:32:28;;;;;;;5.43;2.97;;;16.30;99.90;;;;;;478666;249;28735;-80
2023/07/16 05:34:29;;;;;;;7.83;3.00;;;16.40;99.90;;;;;;487028;243;28700;-79
2023/07/16 05:36:31;;;;;;;8.60;3.97;;;16.40;99.90;;;;;;478830;249;28831;-79
2023/07/16 05:38:32;;;;;;;12.17;3.67;;;16.30;99.90;;;;;;486941;244;28820;-82
2023/07/16 05:40:33;;;;;;;16.83;3.60;;;16.40;99.90;;;;;;478780;249;28774;-79
2023/07/16 05:42:34;;;;;;;7.40;3.70;;;16.50;99.90;;;;;;487062;244;28813;-78
2023/07/16 05:44:36;;;;;;;14.10;3.43;;;16.50;99.90;;;;;;478767;249;29622;-82
2023/07/16 05:46:37;;;;;;;4.83;3.00;;;16.40;99.90;;;;;;487020;244;29535;-81
2023/07/16 05:48:38;;;;;;;7.63;2.80;;;16.50;99.90;;;;;;478679;249;28754;-81
2023/07/16 05:50:39;;;;;;;6.40;3.27;;;16.70;99.90;;;;;;486933;244;28802;-81
2023/07/16 05:52:41;;;;;;;6.27;2.80;;;16.70;99.90;;;;;;478764;249;28751;-79
2023/07/16 05:54:42;;;;;;;3.50;2.87;;;16.50;99.90;;;;;;487099;244;28800;-80
2023/07/16 05:56:43;;;;;;;5.40;2.70;;;16.60;99.90;;;;;;478824;249;28728;-83
2023/07/16 05:58:44;;;;;;;4.30;3.07;;;16.80;99.90;;;;;;486990;244;28816;-82
2023/07/16 06:00:46;;;;;;;9.30;3.30;;;16.60;99.90;;;;;;478794;249;28804;-83
2023/07/16 06:02:47;;;;;;;5.37;3.20;;;16.80;99.90;;;;;;487082;244;28699;-82
2023/07/16 06:04:48;;;;;;;6.63;3.40;;;16.80;99.90;;;;;;478698;249;28720;-82
2023/07/16 06:06:49;;;;;;;5.80;3.10;;;16.90;99.90;;;;;;486992;244;28805;-81
2023/07/16 06:08:51;;;;;;;6.53;2.73;;;16.90;99.90;;;;;;478832;249;29428;-80
2023/07/16 06:10:52;;;;;;;7.10;3.43;;;17.00;99.90;;;;;;487040;244;29236;-79
2023/07/16 06:12:53;;;;;;;7.53;3.00;;;17.20;99.90;;;;;;478828;249;29271;-81
2023/07/16 06:14:54;;;;;;;8.07;3.63;;;17.30;99.90;;;;;;487073;244;28661;-80
2023/07/16 06:16:56;;;;;;;8.03;3.23;;;17.20;99.90;;;;;;478847;244;28788;-80
2023/07/16 06:18:57;;;;;;;7.63;2.73;;;17.20;99.90;;;;;;487012;244;28687;-82
2023/07/16 06:20:58;;;;;;;7.67;3.30;;;17.20;99.90;;;;;;478875;249;28768;-83
2023/07/16 06:22:59;;;;;;;8.00;3.87;;;17.20;99.90;;;;;;487045;244;28754;-80
2023/07/16 06:25:01;;;;;;;5.60;2.90;;;17.40;99.90;;;;;;478801;243;28837;-82
2023/07/16 06:27:02;;;;;;;6.10;3.63;;;17.50;99.90;;;;;;487012;244;28893;-82
2023/07/16 06:29:03;;;;;;;6.77;3.80;;;17.20;99.90;;;;;;478819;249;28737;-81
2023/07/16 06:31:04;;;;;;;8.17;3.87;;;17.10;99.90;;;;;;472627;250;28958;-80
2023/07/16 06:33:06;;;;;;;6.43;3.20;;;17.20;99.90;;;;;;486964;244;29357;-79
2023/07/16 06:35:07;;;;;;;6.57;3.30;;;17.50;99.90;;;;;;478804;249;29198;-82
2023/07/16 06:37:08;;;;;;;6.13;3.67;;;17.50;99.90;;;;;;487049;244;29259;-80
2023/07/16 06:39:09;;;;;;;6.30;3.23;;;17.70;99.90;;;;;;478689;249;29263;-81
2023/07/16 06:41:11;;;;;;;7.10;4.17;;;17.60;99.90;;;;;;472559;250;28872;-81
2023/07/16 06:43:12;;;;;;;8.70;3.70;;;17.60;99.90;;;;;;487062;244;28894;-78
2023/07/16 06:45:13;;;;;;;5.30;3.47;;;17.50;99.90;;;;;;478718;249;28747;-84
2023/07/16 06:47:15;;;;;;;8.30;3.67;;;17.30;99.90;;;;;;486952;244;28812;-82
2023/07/16 06:49:16;;;;;;;8.90;3.33;;;17.20;99.90;;;;;;478818;249;28785;-82
2023/07/16 06:51:17;;;;;;;8.50;4.10;;;17.10;99.90;;;;;;487009;244;28786;-82
2023/07/16 06:53:18;;;;;;;8.10;3.80;;;17.10;99.90;;;;;;478738;249;28762;-82
2023/07/16 06:55:19;;;;;;;7.23;3.33;;;17.10;99.90;;;;;;486774;244;28913;-83
2023/07/16 06:57:21;;;;;;;11.43;4.20;;;17.00;99.90;;;;;;478706;249;29316;-82
2023/07/16 06:59:22;;;;;;;7.03;3.90;;;17.00;99.90;;;;;;486982;244;29486;-80
2023/07/16 07:01:23;;;;;;;6.80;3.80;;;17.10;99.90;;;;;;478709;249;29261;-82
2023/07/16 07:03:25;;;;;;;10.63;4.17;;;17.10;99.90;;;;;;486972;244;28815;-80
2023/07/16 07:05:26;;;;;;;6.00;3.70;;;17.20;99.90;;;;;;478678;249;28784;-83
2023/07/16 07:07:27;;;;;;;6.70;4.20;;;17.20;99.90;;;;;;486930;244;28775;-81
2023/07/16 07:09:28;;;;;;;6.97;4.40;;;17.30;99.90;;;;;;478715;249;28738;-81
2023/07/16 07:11:30;;;;;;;8.83;3.80;;;17.50;99.90;;;;;;472374;250;28844;-82
2023/07/16 07:13:31;;;;;;;9.80;3.90;;;17.60;99.90;;;;;;486931;244;28902;-79
2023/07/16 07:15:32;;;;;;;8.53;4.00;;;17.60;99.90;;;;;;478610;249;28737;-83
2023/07/16 07:17:33;;;;;;;11.00;4.43;;;17.60;99.90;;;;;;486865;244;28839;-82
2023/07/16 07:19:35;;;;;;;11.10;4.63;;;17.60;99.90;;;;;;478659;249;28760;-81
2023/07/16 07:21:36;;;;;;;10.63;4.17;;;17.80;99.90;;;;;;486808;244;29431;-81
2023/07/16 07:23:37;;;;;;;6.47;4.00;;;17.90;99.90;;;;;;478546;249;29350;-82
2023/07/16 07:25:38;;;;;;;7.80;4.00;;;17.90;99.90;;;;;;486701;244;28797;-85
2023/07/16 07:27:40;;;;;;;10.93;4.10;;;18.00;99.90;;;;;;478435;249;28737;-82
2023/07/16 07:29:41;;;;;;;10.80;4.30;;;18.00;99.90;;;;;;486682;244;28817;-82
2023/07/16 07:31:42;;;;;;;10.10;4.20;;;18.00;99.90;;;;;;478349;249;28845;-86
2023/07/16 07:33:43;;;;;;;8.73;3.83;;;17.90;99.90;;;;;;486615;244;28801;-85
2023/07/16 07:35:45;;;;;;;13.83;4.20;;;18.00;99.90;;;;;;478232;249;28854;-84
2023/07/16 07:37:46;;;;;;;7.53;3.77;;;18.10;99.90;;;;;;486483;244;28920;-81
2023/07/16 07:39:49;;;;;;;10.73;4.23;;;18.10;99.90;;;;;;478229;249;29420;-81
2023/07/16 07:41:48;;;;;;;15.30;4.20;;;18.00;99.90;;;;;;486341;244;29362;-83
2023/07/16 07:43:50;;;;;;;9.27;3.90;;;18.20;99.90;;;;;;478159;249;29300;-83
2023/07/16 07:45:51;;;;;;;6.77;3.93;;;18.10;99.90;;;;;;486298;244;29151;-83
2023/07/16 07:47:52;;;;;;;6.20;3.70;;;18.10;99.90;;;;;;478136;249;28863;-85
2023/07/16 07:49:53;;;;;;;6.33;3.50;;;18.10;99.90;;;;;;486370;244;28913;-81
2023/07/16 07:51:55;;;;;;;9.30;3.90;;;18.10;99.90;;;;;;478110;249;28914;-86
2023/07/16 07:53:56;;;;;;;6.23;3.73;;;18.40;99.90;;;;;;486175;244;28922;-82
2023/07/16 07:55:57;;;;;;;8.50;3.70;;;18.50;99.90;;;;;;477927;249;28848;-84
2023/07/16 07:57:58;;;;;;;10.90;3.77;;;18.60;99.90;;;;;;486231;244;28927;-83
2023/07/16 08:00:00;;;;;;;6.97;3.77;;;18.60;99.90;;;;;;477907;248;28977;-82
2023/07/16 08:02:04;;;;;;;15.40;4.17;;;18.40;99.90;;;;;;486302;244;28798;-83
2023/07/16 08:04:02;;;;;;;9.93;3.73;;;18.40;99.90;;;;;;486483;243;29176;-82
2023/07/16 08:06:03;;;;;;;8.17;3.90;;;18.40;99.90;;;;;;486566;244;29166;-80
2023/07/16 08:08:05;;;;;;;8.80;3.77;;;18.30;99.90;;;;;;486554;244;28707;-84
2023/07/16 08:10:06;;;;;;;11.77;4.10;;;18.50;99.90;;;;;;486510;244;28770;-83
2023/07/16 08:12:07;;;;;;;5.67;3.40;;;18.70;99.90;;;;;;486575;244;28929;-84
2023/07/16 08:14:08;;;;;;;8.70;3.63;;;18.80;99.90;;;;;;486554;244;28793;-84
2023/07/16 08:16:10;;;;;;;5.53;3.10;;;19.00;99.90;;;;;;486674;244;28951;-81
2023/07/16 08:18:11;;;;;;;6.20;3.10;;;19.40;99.90;;;;;;486632;244;28736;-85
2023/07/16 08:20:12;;;;;;;6.13;3.37;;;19.40;99.90;;;;;;486670;244;28785;-84
2023/07/16 08:22:13;;;;;;;7.60;3.40;;;19.20;99.90;;;;;;486753;244;28840;-83
2023/07/16 08:24:15;;;;;;;12.63;3.00;;;19.00;99.90;;;;;;486578;244;28713;-82
2023/07/16 08:26:16;;;;;;;7.13;3.30;;;19.00;99.90;;;;;;486644;244;29304;-82
2023/07/16 08:28:17;;;;;;;6.27;3.30;;;19.20;99.90;;;;;;486578;244;29283;-84
2023/07/16 08:30:18;;;;;;;6.20;3.93;;;19.20;99.90;;;;;;486626;244;29207;-83
2023/07/16 08:32:21;;;;;;;6.47;3.60;;;19.20;99.90;;;;;;486661;244;28796;-84
2023/07/16 08:34:21;;;;;;;9.33;3.47;;;19.40;99.90;;;;;;486546;244;28701;-84
2023/07/16 08:36:22;;;;;;;3.47;2.90;;;19.30;99.90;;;;;;486687;244;28741;-80
2023/07/16 08:38:23;;;;;;;12.60;3.83;;;19.30;99.90;;;;;;486610;244;28697;-82
2023/07/16 08:40:27;;;;;;;8.43;3.50;;;19.40;99.90;;;;;;486561;244;28871;-83
2023/07/16 08:42:26;;;;;;;8.57;3.63;;;19.30;99.90;;;;;;486439;244;28754;-84
2023/07/16 08:44:27;;;;;;;6.67;3.30;;;19.40;99.90;;;;;;486541;244;28755;-84
2023/07/16 08:46:28;;;;;;;6.47;3.20;;;19.30;99.90;;;;;;486590;244;28835;-81
2023/07/16 08:48:30;;;;;;;6.00;3.20;;;19.10;99.90;;;;;;486599;244;28710;-84
2023/07/16 08:50:31;;;;;;;8.37;3.50;;;19.10;99.90;;;;;;486511;244;29207;-82
2023/07/16 08:52:32;;;;;;;9.30;3.13;;;18.80;99.90;;;;;;486576;244;29984;-83
2023/07/16 08:54:33;;;;;;;9.37;3.47;;;18.70;99.90;;;;;;486492;244;29189;-83
2023/07/16 08:56:35;;;;;;;8.60;3.43;;;18.60;99.90;;;;;;486394;244;28711;-81
2023/07/16 08:58:37;;;;;;;7.10;2.80;;;18.80;99.90;;;;;;486382;244;28754;-85
2023/07/16 09:00:37;;;;;;;9.23;3.20;;;18.70;99.90;;;;;;486489;244;28796;-82
2023/07/16 09:02:38;;;;;;;6.93;3.30;;;18.80;99.90;;;;;;486529;244;28848;-81
2023/07/16 09:04:40;;;;;;;10.97;3.53;;;18.80;99.90;;;;;;486361;244;28706;-82
2023/07/16 09:06:41;;;;;;;4.90;3.13;;;18.80;99.90;;;;;;486436;244;28765;-80
2023/07/16 09:08:42;;;;;;;9.47;3.43;;;19.00;99.90;;;;;;486529;244;28744;-84
2023/07/16 09:10:43;;;;;;;8.43;3.40;;;19.00;99.90;;;;;;486555;244;28758;-84
2023/07/16 09:12:45;;;;;;;5.70;3.47;;;19.00;99.90;;;;;;486474;244;28804;-82
2023/07/16 09:14:46;;;;;;;9.73;3.40;;;19.00;99.90;;;;;;486466;244;29287;-85
2023/07/16 09:16:47;;;;;;;5.20;3.03;;;19.10;99.90;;;;;;486290;244;29226;-80
2023/07/16 09:18:48;;;;;;;4.23;3.27;;;19.10;99.90;;;;;;486324;244;29253;-85
2023/07/16 09:20:50;;;;;;;10.17;3.40;;;19.20;99.90;;;;;;486248;244;28821;-80
2023/07/16 09:22:51;;;;;;;5.60;3.07;;;19.20;99.90;;;;;;486286;244;28791;-80
2023/07/16 09:24:52;;;;;;;13.57;4.30;;;19.20;99.90;;;;;;486285;244;28807;-82
2023/07/16 09:26:54;;;;;;;8.37;3.40;;;19.10;99.90;;;;;;486223;244;28823;-83
2023/07/16 09:28:55;;;;;;;7.80;3.63;;;19.10;99.90;;;;;;486115;244;28862;-84
2023/07/16 09:30:56;;;;;;;8.20;3.30;;;19.00;99.90;;;;;;486324;244;28820;-83
2023/07/16 09:32:57;;;;;;;3.77;2.77;;;19.00;99.90;;;;;;486279;244;28836;-80
2023/07/16 09:34:58;;;;;;;8.93;2.97;;;19.10;99.90;;;;;;486201;244;28726;-82
2023/07/16 09:37:00;;;;;;;8.68;3.28;;;19.20;99.90;;;;;;482487;244;36547;-82
2023/07/16 09:39:01;;;;;;;7.20;3.47;;;19.30;99.90;;;;;;486282;244;28661;-84
2023/07/16 09:41:02;;;;;;;8.57;3.53;;;19.10;99.90;;;;;;486326;244;29287;-81
2023/07/16 09:43:04;;;;;;;7.83;3.57;;;18.90;99.90;;;;;;486341;244;29206;-80
2023/07/16 09:45:05;;;;;;;5.10;3.57;;;18.80;99.90;;;;;;486171;244;28718;-81
2023/07/16 09:47:06;;;;;;;4.13;3.20;;;18.70;99.90;;;;;;486264;244;28859;-81
2023/07/16 09:49:07;;;;;;;12.43;3.90;;;18.70;99.90;;;;;;486284;244;28709;-83
2023/07/16 09:51:08;;;;;;;4.50;3.43;;;18.60;99.90;;;;;;486255;244;28745;-82
2023/07/16 09:53:10;;;;;;;8.93;2.90;;;18.60;99.90;;;;;;486229;244;28713;-81
2023/07/16 09:55:11;;;;;;;9.63;3.70;;;18.60;99.90;;;;;;486235;244;28779;-80
2023/07/16 09:57:12;;;;;;;6.07;3.20;;;18.80;99.90;;;;;;486191;244;28778;-81
2023/07/16 09:59:13;;;;;;;6.30;3.20;;;18.90;99.90;;;;;;486209;244;28710;-83
2023/07/16 10:01:15;;;;;;;6.67;3.10;;;19.00;99.90;;;;;;486213;244;28814;-84
2023/07/16 10:03:18;;;;;;;8.63;3.33;;;19.20;99.90;;;;;;486185;244;29366;-82
2023/07/16 10:05:17;;;;;;;6.87;3.20;;;19.20;99.90;;;;;;486104;243;29141;-84
2023/07/16 10:07:18;;;;;;;5.37;2.83;;;19.30;99.90;;;;;;486033;244;29196;-80
2023/07/16 10:09:20;;;;;;;6.27;3.23;;;19.20;99.90;;;;;;486145;244;28740;-84
2023/07/16 10:11:21;;;;;;;7.20;3.00;;;19.20;99.90;;;;;;486148;244;28764;-81
2023/07/16 10:13:22;;;;;;;6.30;3.00;;;19.30;99.90;;;;;;486180;244;28756;-82
2023/07/16 10:15:24;;;;;;;5.17;2.90;;;19.30;99.90;;;;;;486228;244;28789;-83
2023/07/16 10:17:25;;;;;;;5.90;3.00;;;19.30;99.90;;;;;;486160;244;28843;-82
2023/07/16 10:19:26;;;;;;;6.97;3.10;;;19.40;99.90;;;;;;486141;244;28771;-83
2023/07/16 10:21:27;;;;;;;8.53;3.10;;;19.70;99.90;;;;;;486149;244;28808;-82
2023/07/16 10:23:29;;;;;;;8.17;3.40;;;19.80;99.90;;;;;;486129;244;28773;-82
2023/07/16 10:25:30;;;;;;;8.77;3.30;;;20.00;99.90;;;;;;486148;244;29183;-81
2023/07/16 10:27:31;;;;;;;4.57;2.93;;;20.30;99.90;;;;;;486101;243;29339;-81
2023/07/16 10:29:32;;;;;;;8.27;3.13;;;20.50;99.90;;;;;;486179;244;29286;-79